createdAt,value
2024-05-09T00:03:20.118Z,14.90
2024-05-09T00:07:22.593Z,14.80
2024-05-09T00:11:25.090Z,14.80
2024-05-09T00:15:27.580Z,14.90
2024-05-09T00:19:30.043Z,14.90
2024-05-09T00:23:32.672Z,14.90
2024-05-09T00:27:36.448Z,14.90
2024-05-09T00:31:38.854Z,14.90
2024-05-09T00:35:41.845Z,15.00
2024-05-09T00:39:45.034Z,14.90
2024-05-09T00:43:47.491Z,14.90
2024-05-09T00:47:50.373Z,15.00
2024-05-09T00:51:56.581Z,14.90
2024-05-09T00:55:59.555Z,14.90
2024-05-09T01:00:02.318Z,14.90
2024-05-09T01:04:04.937Z,15.00
2024-05-09T01:08:08.505Z,15.00
2024-05-09T01:12:11.557Z,14.80
2024-05-09T01:16:14.651Z,14.90
2024-05-09T01:20:22.871Z,14.80
2024-05-09T01:24:30.170Z,14.90
2024-05-09T01:28:32.565Z,14.90
2024-05-09T01:32:35.148Z,14.90
2024-05-09T01:36:37.620Z,14.90
2024-05-09T01:40:40.574Z,14.90
2024-05-09T01:44:43.700Z,14.50
2024-05-09T01:48:47.088Z,14.90
2024-05-09T01:52:49.639Z,14.90
2024-05-09T01:56:52.103Z,14.80
2024-05-09T02:00:54.855Z,14.80
2024-05-09T02:04:57.358Z,14.70
2024-05-09T02:08:59.859Z,14.70
2024-05-09T02:13:02.332Z,14.70
2024-05-09T02:17:04.996Z,14.70
2024-05-09T02:21:09.192Z,14.60
2024-05-09T02:25:11.630Z,14.50
2024-05-09T02:29:14.103Z,14.60
2024-05-09T02:33:16.729Z,14.60
2024-05-09T02:37:19.237Z,19.80
2024-05-09T02:41:21.733Z,14.60
2024-05-09T02:45:24.971Z,14.70
2024-05-09T02:49:27.608Z,14.80
2024-05-09T02:53:30.099Z,14.80
2024-05-09T02:57:32.489Z,14.80
2024-05-09T03:01:35.178Z,14.80
2024-05-09T03:05:38.075Z,14.90
2024-05-09T03:09:40.621Z,14.90
2024-05-09T03:13:43.102Z,15.00
2024-05-09T03:17:46.234Z,14.90
2024-05-09T03:21:48.811Z,14.90
2024-05-09T03:25:51.369Z,14.90
2024-05-09T03:29:54.141Z,14.90
2024-05-09T03:33:56.789Z,14.90
2024-05-09T03:37:59.286Z,14.80
2024-05-09T03:42:01.784Z,14.80
2024-05-09T03:46:04.346Z,14.80
2024-05-09T03:50:14.988Z,14.80
2024-05-09T03:54:20.502Z,14.80
2024-05-09T03:58:22.906Z,14.80
2024-05-09T04:02:25.415Z,14.80
2024-05-09T04:06:27.869Z,14.70
2024-05-09T04:10:33.697Z,14.70
2024-05-09T04:14:37.392Z,14.70
2024-05-09T04:18:40.047Z,14.80
2024-05-09T04:22:42.494Z,14.70
2024-05-09T04:26:44.918Z,14.80
2024-05-09T04:30:47.380Z,14.80
2024-05-09T04:34:49.873Z,14.70
2024-05-09T04:38:52.335Z,14.80
2024-05-09T04:42:54.736Z,14.80
2024-05-09T04:46:57.253Z,14.60
2024-05-09T04:50:59.746Z,15.00
2024-05-09T04:55:02.225Z,15.00
2024-05-09T04:59:04.730Z,15.10
2024-05-09T05:03:11.001Z,15.10
2024-05-09T05:07:15.611Z,13.00
2024-05-09T05:11:18.138Z,15.00
2024-05-09T05:15:20.668Z,15.10
2024-05-09T05:19:23.225Z,15.10
2024-05-09T05:23:25.851Z,15.20
2024-05-09T05:27:28.317Z,15.30
2024-05-09T05:31:30.802Z,15.30
2024-05-09T05:35:33.519Z,15.40
2024-05-09T05:39:36.010Z,15.40
2024-05-09T05:43:38.480Z,15.40
2024-05-09T05:47:41.514Z,15.50
2024-05-09T05:51:44.182Z,15.70
2024-05-09T05:55:46.627Z,15.70
2024-05-09T05:59:49.110Z,15.70
2024-05-09T06:03:51.698Z,15.70
2024-05-09T06:07:54.274Z,13.60
2024-05-09T06:11:56.843Z,16.00
2024-05-09T06:16:00.891Z,16.20
2024-05-09T06:20:03.701Z,17.10
2024-05-09T06:24:07.149Z,16.60
2024-05-09T06:28:09.532Z,16.70
2024-05-09T06:32:12.032Z,16.70
2024-05-09T06:36:14.480Z,16.80
2024-05-09T06:40:21.433Z,17.00
2024-05-09T06:44:28.069Z,17.90
2024-05-09T06:48:30.781Z,16.90
2024-05-09T06:52:33.446Z,17.10
2024-05-09T06:56:36.605Z,17.10
2024-05-09T07:00:41.216Z,17.30
2024-05-09T07:04:44.649Z,17.50
2024-05-09T07:08:48.595Z,17.70
2024-05-09T07:12:51.200Z,17.60
2024-05-09T07:16:53.734Z,17.60
2024-05-09T07:20:56.272Z,17.70
2024-05-09T07:24:58.741Z,17.60
2024-05-09T07:29:01.239Z,19.00
2024-05-09T07:33:04.275Z,17.90
2024-05-09T07:37:12.793Z,18.00
2024-05-09T07:41:15.298Z,17.90
2024-05-09T07:53:39.925Z,17.90
2024-05-09T07:57:46.980Z,17.90
2024-05-09T08:01:49.480Z,20.50
2024-05-09T08:05:52.345Z,18.30
2024-05-09T08:09:54.879Z,18.70
2024-05-09T08:13:57.329Z,18.80
2024-05-09T08:18:00.343Z,18.80
2024-05-09T08:22:07.142Z,18.50
2024-05-09T08:26:09.693Z,18.50
2024-05-09T08:30:21.329Z,18.50
2024-05-09T08:34:27.662Z,18.70
2024-05-09T08:38:30.146Z,18.80
2024-05-09T08:42:36.411Z,18.80
2024-05-09T08:46:39.004Z,18.90
2024-05-09T08:50:41.792Z,18.90
2024-05-09T08:54:45.246Z,19.30
2024-05-09T08:58:52.051Z,19.90
2024-05-09T09:02:55.693Z,20.70
2024-05-09T09:07:00.372Z,21.30
2024-05-09T09:11:04.441Z,22.10
2024-05-09T09:15:07.145Z,22.70
2024-05-09T09:19:09.829Z,23.10
2024-05-09T09:23:12.331Z,23.10
2024-05-09T09:27:14.937Z,22.80
2024-05-09T09:31:20.530Z,22.50
2024-05-09T09:35:23.051Z,22.40
2024-05-09T09:39:28.679Z,23.00
2024-05-09T09:43:32.426Z,23.80
2024-05-09T09:47:39.938Z,24.70
2024-05-09T09:51:43.915Z,25.00
2024-05-09T09:55:47.370Z,25.00
2024-05-09T09:59:52.254Z,25.00
2024-05-09T10:03:54.961Z,24.90
2024-05-09T10:07:58.992Z,24.10
2024-05-09T10:12:16.717Z,23.90
2024-05-09T10:16:24.416Z,24.60
2024-05-09T10:20:30.907Z,25.50
2024-05-09T10:24:50.648Z,25.70
2024-05-09T10:28:53.087Z,25.10
2024-05-09T10:32:57.609Z,24.50
2024-05-09T10:37:04.174Z,24.10
2024-05-09T10:41:07.482Z,23.90
2024-05-09T10:45:09.886Z,23.60
2024-05-09T10:49:15.097Z,23.80
2024-05-09T10:53:19.276Z,23.90
2024-05-09T10:57:22.913Z,24.30
2024-05-09T11:01:25.651Z,25.40
2024-05-09T11:05:28.408Z,26.00
2024-05-09T11:09:33.112Z,26.00
2024-05-09T11:13:37.266Z,25.40
2024-05-09T11:17:39.817Z,25.00
2024-05-09T11:21:42.625Z,24.80
2024-05-09T11:25:52.457Z,24.40
2024-05-09T11:29:54.956Z,23.80
2024-05-09T11:33:57.497Z,23.70
2024-05-09T11:38:00.025Z,23.60
2024-05-09T11:42:02.524Z,23.60
2024-05-09T11:46:05.731Z,23.30
2024-05-09T11:50:13.004Z,23.10
2024-05-09T11:54:18.843Z,23.30
2024-05-09T11:58:23.021Z,23.40
2024-05-09T12:02:25.692Z,23.50
2024-05-09T12:06:29.619Z,23.70
2024-05-09T12:10:34.779Z,23.80
2024-05-09T12:14:38.746Z,23.80
2024-05-09T12:18:41.283Z,24.10
2024-05-09T12:22:43.845Z,24.10
2024-05-09T12:26:46.383Z,23.90
2024-05-09T12:30:49.996Z,23.70
2024-05-09T12:34:52.434Z,23.50
2024-05-09T12:38:54.906Z,23.60
2024-05-09T12:42:57.376Z,23.30
2024-05-09T12:47:01.498Z,23.30
2024-05-09T12:51:04.000Z,23.10
2024-05-09T12:55:06.809Z,23.10
2024-05-09T12:59:09.260Z,23.00
2024-05-09T13:03:11.958Z,22.80
2024-05-09T13:07:14.950Z,22.40
2024-05-09T13:11:17.531Z,22.50
2024-05-09T13:15:19.940Z,22.60
2024-05-09T13:19:22.579Z,22.50
2024-05-09T13:23:25.115Z,22.40
2024-05-09T13:27:27.595Z,22.50
2024-05-09T13:31:30.151Z,22.40
2024-05-09T13:35:34.412Z,22.30
2024-05-09T13:39:37.083Z,22.30
2024-05-09T13:43:39.736Z,22.30
2024-05-09T13:47:42.410Z,22.20
2024-05-09T13:51:44.950Z,22.10
2024-05-09T13:55:47.614Z,22.10
2024-05-09T13:59:50.044Z,22.00
2024-05-09T14:03:52.601Z,21.80
2024-05-09T14:07:55.186Z,21.90
2024-05-09T14:11:57.682Z,21.90
2024-05-09T14:16:00.383Z,21.90
2024-05-09T14:20:03.824Z,21.90
2024-05-09T14:24:07.162Z,21.90
2024-05-09T14:28:10.444Z,21.80
2024-05-09T14:32:12.886Z,21.70
2024-05-09T14:36:15.360Z,21.80
2024-05-09T14:40:29.744Z,23.10
2024-05-09T14:44:39.210Z,21.70
2024-05-09T14:48:42.571Z,21.40
2024-05-09T14:52:45.077Z,21.60
2024-05-09T14:56:47.604Z,21.80
2024-05-09T15:00:51.494Z,21.90
2024-05-09T15:04:54.638Z,22.10
2024-05-09T15:08:57.824Z,22.00
2024-05-09T15:13:00.431Z,22.00
2024-05-09T15:17:03.399Z,21.80
2024-05-09T15:21:06.180Z,21.70
2024-05-09T15:25:08.742Z,21.70
2024-05-09T15:29:11.341Z,21.70
2024-05-09T15:33:13.816Z,21.70
2024-05-09T15:37:16.498Z,21.50
2024-05-09T15:41:19.048Z,21.50
2024-05-09T15:45:21.482Z,21.30
2024-05-09T15:49:24.067Z,21.30
2024-05-09T15:53:26.576Z,21.30
2024-05-09T15:57:29.177Z,21.20
2024-05-09T16:01:31.692Z,20.90
2024-05-09T16:05:34.413Z,21.10
2024-05-09T16:09:37.144Z,21.00
2024-05-09T16:13:39.602Z,21.10
2024-05-09T16:17:42.060Z,21.40
2024-05-09T16:21:44.557Z,21.50
2024-05-09T16:25:48.390Z,21.70
2024-05-09T16:29:51.208Z,21.00
2024-05-09T16:33:53.806Z,21.30
2024-05-09T16:37:56.583Z,21.30
2024-05-09T16:41:59.009Z,21.30
2024-05-09T16:46:01.676Z,21.10
2024-05-09T16:50:05.311Z,21.00
2024-05-09T16:54:09.028Z,20.80
2024-05-09T16:58:12.634Z,20.70
2024-05-09T17:02:15.426Z,20.60
2024-05-09T17:06:18.353Z,20.50
2024-05-09T17:10:29.117Z,20.40
2024-05-09T17:14:34.840Z,20.30
2024-05-09T17:18:37.452Z,20.20
2024-05-09T17:22:39.958Z,20.20
2024-05-09T17:26:42.433Z,20.10
2024-05-09T17:30:45.591Z,20.00
2024-05-09T17:34:48.084Z,19.80
2024-05-09T17:38:50.743Z,19.80
2024-05-09T17:42:53.168Z,19.60
2024-05-09T17:46:55.896Z,19.50
2024-05-09T17:50:58.392Z,19.20
2024-05-09T17:55:00.967Z,19.10
2024-05-09T17:59:03.500Z,18.90
2024-05-09T18:03:06.486Z,18.70
2024-05-09T18:07:09.161Z,18.60
2024-05-09T18:11:11.829Z,18.40
2024-05-09T18:15:14.380Z,18.30
2024-05-09T18:19:17.037Z,18.00
2024-05-09T18:23:19.547Z,17.80
2024-05-09T18:27:22.117Z,17.70
2024-05-09T18:31:24.722Z,17.60
2024-05-09T18:35:27.409Z,17.80
2024-05-09T18:39:29.823Z,17.30
2024-05-09T18:43:38.445Z,17.20
2024-05-09T18:47:47.270Z,17.20
2024-05-09T18:51:49.778Z,17.30
2024-05-09T18:55:52.290Z,17.30
2024-05-09T18:59:54.703Z,17.20
2024-05-09T19:03:57.368Z,17.10
2024-05-09T19:07:59.914Z,17.00
2024-05-09T19:12:06.366Z,16.90
2024-05-09T19:16:08.906Z,16.90
2024-05-09T19:20:20.760Z,16.70
2024-05-09T19:24:30.952Z,16.50
2024-05-09T19:28:33.472Z,16.30
2024-05-09T19:32:36.127Z,16.10
2024-05-09T19:36:38.690Z,15.90
2024-05-09T19:40:41.429Z,15.90
2024-05-09T19:44:43.922Z,15.90
2024-05-09T19:48:46.557Z,15.80
2024-05-09T19:52:49.113Z,15.80
2024-05-09T19:56:51.656Z,15.70
2024-05-09T20:00:54.206Z,15.50
2024-05-09T20:04:56.717Z,15.40
2024-05-09T20:08:59.824Z,15.40
2024-05-09T20:13:02.826Z,15.30
2024-05-09T20:17:05.512Z,15.20
2024-05-09T20:21:08.066Z,15.10
2024-05-09T20:25:10.790Z,15.10
2024-05-09T20:29:13.278Z,15.20
2024-05-09T20:33:15.764Z,15.10
2024-05-09T20:37:18.887Z,15.00
2024-05-09T20:41:21.345Z,14.80
2024-05-09T20:45:23.804Z,14.70
2024-05-09T20:49:26.658Z,14.60
2024-05-09T20:53:29.185Z,14.50
2024-05-09T20:57:32.239Z,14.40
2024-05-09T21:01:34.875Z,14.40
2024-05-09T21:05:37.558Z,14.20
2024-05-09T21:09:40.247Z,13.00
2024-05-09T21:13:42.739Z,14.20
2024-05-09T21:17:45.259Z,14.20
2024-05-09T21:21:48.474Z,14.10
2024-05-09T21:25:51.997Z,14.00
2024-05-09T21:29:54.424Z,13.90
2024-05-09T21:33:56.981Z,14.00
2024-05-09T21:37:59.592Z,14.00
2024-05-09T21:42:02.812Z,14.00
2024-05-09T21:46:05.696Z,14.00
2024-05-09T21:50:12.437Z,13.80
2024-05-09T21:54:17.741Z,13.80
2024-05-09T21:58:20.271Z,13.80
2024-05-09T22:02:22.943Z,14.00
2024-05-09T22:06:25.401Z,14.00
2024-05-09T22:10:33.766Z,14.00
2024-05-09T22:14:38.366Z,14.10
2024-05-09T22:18:40.843Z,14.10
2024-05-09T22:22:43.322Z,14.10
2024-05-09T22:26:45.729Z,14.00
2024-05-09T22:30:48.302Z,13.90
2024-05-09T22:34:50.796Z,13.80
2024-05-09T22:38:53.290Z,13.80
2024-05-09T22:42:55.892Z,13.70
2024-05-09T22:46:58.442Z,13.60
2024-05-09T22:51:01.098Z,13.70
2024-05-09T22:55:04.378Z,13.70
2024-05-09T22:59:07.229Z,13.60
2024-05-09T23:03:09.983Z,13.50
2024-05-09T23:07:12.657Z,13.60
2024-05-09T23:11:15.188Z,13.60
2024-05-09T23:15:17.671Z,13.80
2024-05-09T23:19:20.150Z,13.80
2024-05-09T23:23:22.705Z,13.80
2024-05-09T23:27:25.102Z,13.90
2024-05-09T23:31:27.805Z,14.00
2024-05-09T23:35:30.287Z,14.00
2024-05-09T23:39:32.835Z,14.20
2024-05-09T23:43:38.620Z,14.10
2024-05-09T23:47:41.187Z,14.00
2024-05-09T23:51:43.720Z,13.90
2024-05-09T23:55:46.150Z,13.80
2024-05-09T23:59:49.378Z,13.60
